sensor_id;sensor_type;location;lat;lon;timestamp;P1;durP1;ratioP1;P2;durP2;ratioP2
51298;SDS011;37382;45.192;9.790;2022-10-31T05:08:30;38.08;;;21.58;;
51298;SDS011;37382;45.192;9.790;2022-10-31T05:11:01;36.70;;;21.63;;
51298;SDS011;37382;45.192;9.790;2022-10-31T05:13:34;44.97;;;22.55;;
51298;SDS011;37382;45.192;9.790;2022-10-31T05:16:11;39.67;;;20.65;;
51298;SDS011;37382;45.192;9.790;2022-10-31T05:18:56;36.85;;;22.10;;
51298;SDS011;37382;45.192;9.790;2022-10-31T05:21:46;49.10;;;21.65;;
51298;SDS011;37382;45.192;9.790;2022-10-31T05:24:14;33.65;;;20.35;;
51298;SDS011;37382;45.192;9.790;2022-10-31T05:26:47;30.75;;;20.13;;
51298;SDS011;37382;45.192;9.790;2022-10-31T05:29:15;35.58;;;20.35;;
51298;SDS011;37382;45.192;9.790;2022-10-31T05:31:44;33.30;;;20.55;;
51298;SDS011;37382;45.192;9.790;2022-10-31T05:34:31;30.27;;;19.83;;
51298;SDS011;37382;45.192;9.790;2022-10-31T05:37:28;32.47;;;19.90;;
51298;SDS011;37382;45.192;9.790;2022-10-31T05:39:55;31.10;;;19.40;;
51298;SDS011;37382;45.192;9.790;2022-10-31T05:42:23;37.33;;;19.60;;
51298;SDS011;37382;45.192;9.790;2022-10-31T05:44:50;33.88;;;20.20;;
51298;SDS011;37382;45.192;9.790;2022-10-31T05:47:38;34.80;;;19.20;;
51298;SDS011;37382;45.192;9.790;2022-10-31T05:50:24;29.77;;;19.05;;
51298;SDS011;37382;45.192;9.790;2022-10-31T05:53:04;40.53;;;19.30;;
51298;SDS011;37382;45.192;9.790;2022-10-31T05:55:37;32.47;;;20.27;;
51298;SDS011;37382;45.192;9.790;2022-10-31T05:58:11;35.22;;;20.45;;
51298;SDS011;37382;45.192;9.790;2022-10-31T06:00:41;32.80;;;19.77;;
51298;SDS011;37382;45.192;9.790;2022-10-31T06:03:12;30.35;;;17.83;;
51298;SDS011;37382;45.192;9.790;2022-10-31T06:05:53;31.17;;;18.88;;
51298;SDS011;37382;45.192;9.790;2022-10-31T06:08:24;25.58;;;17.92;;
51298;SDS011;37382;45.192;9.790;2022-10-31T06:10:53;28.45;;;18.15;;
51298;SDS011;37382;45.192;9.790;2022-10-31T06:13:41;33.92;;;17.77;;
51298;SDS011;37382;45.192;9.790;2022-10-31T06:16:16;29.02;;;17.88;;
51298;SDS011;37382;45.192;9.790;2022-10-31T06:18:45;27.17;;;17.20;;
51298;SDS011;37382;45.192;9.790;2022-10-31T06:21:13;33.78;;;16.95;;
51298;SDS011;37382;45.192;9.790;2022-10-31T06:23:45;25.85;;;16.58;;
51298;SDS011;37382;45.192;9.790;2022-10-31T06:26:25;27.25;;;16.95;;
51298;SDS011;37382;45.192;9.790;2022-10-31T06:28:52;32.10;;;17.25;;
51298;SDS011;37382;45.192;9.790;2022-10-31T06:31:43;37.03;;;16.38;;
51298;SDS011;37382;45.192;9.790;2022-10-31T06:34:10;29.35;;;17.67;;
51298;SDS011;37382;45.192;9.790;2022-10-31T06:36:37;31.23;;;17.33;;
51298;SDS011;37382;45.192;9.790;2022-10-31T06:39:05;29.65;;;16.67;;
51298;SDS011;37382;45.192;9.790;2022-10-31T06:41:33;27.48;;;16.15;;
51298;SDS011;37382;45.192;9.790;2022-10-31T06:44:02;28.08;;;16.15;;
51298;SDS011;37382;45.192;9.790;2022-10-31T06:46:58;33.38;;;17.00;;
51298;SDS011;37382;45.192;9.790;2022-10-31T06:49:45;26.85;;;16.27;;
51298;SDS011;37382;45.192;9.790;2022-10-31T06:52:16;28.60;;;16.67;;
51298;SDS011;37382;45.192;9.790;2022-10-31T06:54:44;28.63;;;17.45;;
51298;SDS011;37382;45.192;9.790;2022-10-31T06:57:14;37.35;;;15.93;;
51298;SDS011;37382;45.192;9.790;2022-10-31T06:59:41;25.75;;;16.17;;
51298;SDS011;37382;45.192;9.790;2022-10-31T07:02:24;34.78;;;16.90;;
51298;SDS011;37382;45.192;9.790;2022-10-31T07:04:52;29.27;;;15.48;;
51298;SDS011;37382;45.192;9.790;2022-10-31T07:07:19;30.50;;;16.80;;
51298;SDS011;37382;45.192;9.790;2022-10-31T07:09:50;30.02;;;17.60;;
51298;SDS011;37382;45.192;9.790;2022-10-31T07:12:22;29.33;;;16.65;;
51298;SDS011;37382;45.192;9.790;2022-10-31T07:14:58;33.63;;;17.02;;
51298;SDS011;37382;45.192;9.790;2022-10-31T07:17:25;30.55;;;16.83;;
51298;SDS011;37382;45.192;9.790;2022-10-31T07:19:58;29.10;;;17.45;;
51298;SDS011;37382;45.192;9.790;2022-10-31T07:22:31;38.00;;;16.92;;
51298;SDS011;37382;45.192;9.790;2022-10-31T07:25:00;36.55;;;17.08;;
51298;SDS011;37382;45.192;9.790;2022-10-31T07:27:53;37.92;;;17.75;;
51298;SDS011;37382;45.192;9.790;2022-10-31T07:30:22;34.40;;;17.00;;
51298;SDS011;37382;45.192;9.790;2022-10-31T07:32:53;33.53;;;18.17;;
51298;SDS011;37382;45.192;9.790;2022-10-31T07:35:22;28.85;;;17.45;;
51298;SDS011;37382;45.192;9.790;2022-10-31T07:37:56;40.33;;;18.30;;
51298;SDS011;37382;45.192;9.790;2022-10-31T07:40:24;32.00;;;17.38;;
51298;SDS011;37382;45.192;9.790;2022-10-31T07:42:52;28.52;;;17.52;;
51298;SDS011;37382;45.192;9.790;2022-10-31T07:45:39;28.05;;;17.42;;
51298;SDS011;37382;45.192;9.790;2022-10-31T07:48:25;37.38;;;16.80;;
51298;SDS011;37382;45.192;9.790;2022-10-31T07:51:12;30.90;;;17.05;;
51298;SDS011;37382;45.192;9.790;2022-10-31T07:53:58;32.22;;;16.63;;
51298;SDS011;37382;45.192;9.790;2022-10-31T07:58:56;32.67;;;17.75;;
51298;SDS011;37382;45.192;9.790;2022-10-31T08:01:23;30.95;;;16.23;;
51298;SDS011;37382;45.192;9.790;2022-10-31T08:04:11;35.03;;;16.70;;
51298;SDS011;37382;45.192;9.790;2022-10-31T08:06:57;33.15;;;16.80;;
51298;SDS011;37382;45.192;9.790;2022-10-31T08:09:30;31.42;;;16.63;;
51298;SDS011;37382;45.192;9.790;2022-10-31T08:12:03;41.10;;;16.95;;
51298;SDS011;37382;45.192;9.790;2022-10-31T08:14:32;29.83;;;16.85;;
51298;SDS011;37382;45.192;9.790;2022-10-31T08:17:00;29.25;;;16.85;;
51298;SDS011;37382;45.192;9.790;2022-10-31T08:19:38;43.22;;;16.60;;
51298;SDS011;37382;45.192;9.790;2022-10-31T08:22:05;33.22;;;16.67;;
51298;SDS011;37382;45.192;9.790;2022-10-31T08:24:32;33.17;;;17.02;;
51298;SDS011;37382;45.192;9.790;2022-10-31T08:27:00;36.42;;;17.00;;
51298;SDS011;37382;45.192;9.790;2022-10-31T08:29:27;41.60;;;17.65;;
51298;SDS011;37382;45.192;9.790;2022-10-31T08:31:57;31.42;;;17.08;;
51298;SDS011;37382;45.192;9.790;2022-10-31T08:34:43;35.17;;;17.08;;
51298;SDS011;37382;45.192;9.790;2022-10-31T08:37:39;38.17;;;17.33;;
51298;SDS011;37382;45.192;9.790;2022-10-31T08:40:08;33.67;;;17.30;;
51298;SDS011;37382;45.192;9.790;2022-10-31T08:42:36;38.90;;;16.95;;
51298;SDS011;37382;45.192;9.790;2022-10-31T08:45:04;34.10;;;16.88;;
51298;SDS011;37382;45.192;9.790;2022-10-31T08:47:32;33.80;;;17.00;;
51298;SDS011;37382;45.192;9.790;2022-10-31T08:50:00;27.75;;;16.42;;
51298;SDS011;37382;45.192;9.790;2022-10-31T08:52:28;29.40;;;16.63;;
51298;SDS011;37382;45.192;9.790;2022-10-31T08:55:16;41.53;;;17.35;;
51298;SDS011;37382;45.192;9.790;2022-10-31T08:58:02;30.88;;;17.33;;
51298;SDS011;37382;45.192;9.790;2022-10-31T09:00:40;34.17;;;17.00;;
51298;SDS011;37382;45.192;9.790;2022-10-31T09:03:15;26.70;;;16.35;;
51298;SDS011;37382;45.192;9.790;2022-10-31T09:05:48;37.65;;;17.25;;
51298;SDS011;37382;45.192;9.790;2022-10-31T09:08:16;36.33;;;17.67;;
51298;SDS011;37382;45.192;9.790;2022-10-31T09:10:46;36.72;;;17.15;;
51298;SDS011;37382;45.192;9.790;2022-10-31T09:13:19;38.25;;;18.67;;
51298;SDS011;37382;45.192;9.790;2022-10-31T09:16:09;33.78;;;16.95;;
51298;SDS011;37382;45.192;9.790;2022-10-31T09:18:37;31.23;;;17.70;;
51298;SDS011;37382;45.192;9.790;2022-10-31T09:21:05;43.55;;;18.25;;
51298;SDS011;37382;45.192;9.790;2022-10-31T09:23:33;32.65;;;17.60;;
51298;SDS011;37382;45.192;9.790;2022-10-31T09:26:01;34.47;;;17.27;;
51298;SDS011;37382;45.192;9.790;2022-10-31T09:28:35;37.95;;;17.45;;
51298;SDS011;37382;45.192;9.790;2022-10-31T09:31:07;43.97;;;18.00;;
51298;SDS011;37382;45.192;9.790;2022-10-31T09:33:57;34.65;;;17.52;;
51298;SDS011;37382;45.192;9.790;2022-10-31T09:36:39;32.70;;;17.42;;
51298;SDS011;37382;45.192;9.790;2022-10-31T09:39:11;39.92;;;18.48;;
51298;SDS011;37382;45.192;9.790;2022-10-31T09:45:12;35.33;;;17.70;;
51298;SDS011;37382;45.192;9.790;2022-10-31T09:47:49;34.75;;;19.45;;
51298;SDS011;37382;45.192;9.790;2022-10-31T09:50:41;37.88;;;21.08;;
51298;SDS011;37382;45.192;9.790;2022-10-31T09:53:38;36.50;;;20.13;;
51298;SDS011;37382;45.192;9.790;2022-10-31T09:56:13;40.03;;;20.13;;
51298;SDS011;37382;45.192;9.790;2022-10-31T09:58:45;53.13;;;22.20;;
51298;SDS011;37382;45.192;9.790;2022-10-31T10:04:09;55.97;;;21.23;;
51298;SDS011;37382;45.192;9.790;2022-10-31T10:10:12;39.58;;;20.92;;
51298;SDS011;37382;45.192;9.790;2022-10-31T10:27:48;29.85;;;19.08;;
51298;SDS011;37382;45.192;9.790;2022-10-31T10:30:22;36.17;;;19.38;;
51298;SDS011;37382;45.192;9.790;2022-10-31T10:32:59;38.80;;;19.83;;
51298;SDS011;37382;45.192;9.790;2022-10-31T10:35:36;32.03;;;17.38;;
51298;SDS011;37382;45.192;9.790;2022-10-31T10:40:45;32.05;;;17.48;;
51298;SDS011;37382;45.192;9.790;2022-10-31T11:00:14;34.47;;;14.73;;
51298;SDS011;37382;45.192;9.790;2022-10-31T11:02:45;29.73;;;14.82;;
51298;SDS011;37382;45.192;9.790;2022-10-31T11:08:22;37.00;;;14.38;;
51298;SDS011;37382;45.192;9.790;2022-10-31T11:13:46;29.58;;;14.07;;
51298;SDS011;37382;45.192;9.790;2022-10-31T11:16:30;29.73;;;13.93;;
51298;SDS011;37382;45.192;9.790;2022-10-31T11:19:13;26.35;;;14.27;;
51298;SDS011;37382;45.192;9.790;2022-10-31T11:21:44;34.38;;;14.00;;
51298;SDS011;37382;45.192;9.790;2022-10-31T11:24:23;35.42;;;14.73;;
51298;SDS011;37382;45.192;9.790;2022-10-31T11:27:02;26.75;;;14.77;;
51298;SDS011;37382;45.192;9.790;2022-10-31T11:29:40;34.72;;;15.07;;
51298;SDS011;37382;45.192;9.790;2022-10-31T11:32:13;35.13;;;14.52;;
51298;SDS011;37382;45.192;9.790;2022-10-31T11:34:56;31.55;;;14.35;;
51298;SDS011;37382;45.192;9.790;2022-10-31T11:37:30;34.97;;;13.80;;
51298;SDS011;37382;45.192;9.790;2022-10-31T11:40:04;36.55;;;13.65;;
51298;SDS011;37382;45.192;9.790;2022-10-31T11:42:40;28.88;;;15.07;;
51298;SDS011;37382;45.192;9.790;2022-10-31T11:47:56;26.70;;;12.65;;
51298;SDS011;37382;45.192;9.790;2022-10-31T11:50:27;30.15;;;14.13;;
51298;SDS011;37382;45.192;9.790;2022-10-31T11:53:01;35.08;;;13.55;;
51298;SDS011;37382;45.192;9.790;2022-10-31T11:55:34;35.33;;;12.80;;
51298;SDS011;37382;45.192;9.790;2022-10-31T11:58:18;36.63;;;14.55;;
51298;SDS011;37382;45.192;9.790;2022-10-31T12:00:52;34.50;;;12.15;;
51298;SDS011;37382;45.192;9.790;2022-10-31T12:05:51;30.25;;;12.57;;
51298;SDS011;37382;45.192;9.790;2022-10-31T12:08:34;43.35;;;13.50;;
51298;SDS011;37382;45.192;9.790;2022-10-31T12:14:28;27.77;;;13.60;;
51298;SDS011;37382;45.192;9.790;2022-10-31T12:17:16;36.00;;;13.43;;
51298;SDS011;37382;45.192;9.790;2022-10-31T12:23:15;25.15;;;12.93;;
51298;SDS011;37382;45.192;9.790;2022-10-31T12:25:53;22.00;;;11.95;;
51298;SDS011;37382;45.192;9.790;2022-10-31T12:31:51;33.13;;;13.15;;
51298;SDS011;37382;45.192;9.790;2022-10-31T12:43:36;24.05;;;11.70;;
51298;SDS011;37382;45.192;9.790;2022-10-31T12:55:25;25.15;;;11.55;;
51298;SDS011;37382;45.192;9.790;2022-10-31T12:57:59;23.50;;;10.93;;
51298;SDS011;37382;45.192;9.790;2022-10-31T13:00:31;21.60;;;10.60;;
51298;SDS011;37382;45.192;9.790;2022-10-31T13:06:02;25.35;;;11.00;;
51298;SDS011;37382;45.192;9.790;2022-10-31T13:11:46;35.40;;;10.27;;
51298;SDS011;37382;45.192;9.790;2022-10-31T13:14:26;24.13;;;10.02;;
51298;SDS011;37382;45.192;9.790;2022-10-31T13:17:00;22.67;;;9.90;;
51298;SDS011;37382;45.192;9.790;2022-10-31T13:19:35;30.73;;;11.57;;
51298;SDS011;37382;45.192;9.790;2022-10-31T13:27:22;24.92;;;9.60;;
51298;SDS011;37382;45.192;9.790;2022-10-31T13:32:55;27.05;;;8.18;;
51298;SDS011;37382;45.192;9.790;2022-10-31T13:46:45;19.85;;;8.57;;
51298;SDS011;37382;45.192;9.790;2022-10-31T13:52:06;36.85;;;8.70;;
51298;SDS011;37382;45.192;9.790;2022-10-31T13:54:34;22.83;;;8.75;;
51298;SDS011;37382;45.192;9.790;2022-10-31T13:57:06;18.45;;;8.88;;
51298;SDS011;37382;45.192;9.790;2022-10-31T13:59:45;26.02;;;9.02;;
51298;SDS011;37382;45.192;9.790;2022-10-31T14:02:16;24.63;;;9.27;;
51298;SDS011;37382;45.192;9.790;2022-10-31T14:04:47;29.50;;;9.02;;
51298;SDS011;37382;45.192;9.790;2022-10-31T14:07:21;29.02;;;9.55;;
51298;SDS011;37382;45.192;9.790;2022-10-31T14:12:26;28.65;;;9.40;;
51298;SDS011;37382;45.192;9.790;2022-10-31T14:17:47;33.92;;;8.93;;
51298;SDS011;37382;45.192;9.790;2022-10-31T14:23:11;23.63;;;8.70;;
51298;SDS011;37382;45.192;9.790;2022-10-31T14:28:44;23.42;;;9.50;;
51298;SDS011;37382;45.192;9.790;2022-10-31T14:39:54;21.10;;;8.15;;
51298;SDS011;37382;45.192;9.790;2022-10-31T14:45:15;26.55;;;9.75;;
51298;SDS011;37382;45.192;9.790;2022-10-31T14:50:49;25.27;;;9.18;;
51298;SDS011;37382;45.192;9.790;2022-10-31T14:55:53;28.70;;;8.82;;
51298;SDS011;37382;45.192;9.790;2022-10-31T14:58:32;28.88;;;8.07;;
51298;SDS011;37382;45.192;9.790;2022-10-31T15:01:04;20.77;;;8.73;;
51298;SDS011;37382;45.192;9.790;2022-10-31T15:03:36;30.55;;;8.32;;
51298;SDS011;37382;45.192;9.790;2022-10-31T15:06:38;34.50;;;8.73;;
51298;SDS011;37382;45.192;9.790;2022-10-31T15:09:29;27.80;;;8.30;;
51298;SDS011;37382;45.192;9.790;2022-10-31T15:12:16;22.15;;;7.45;;
51298;SDS011;37382;45.192;9.790;2022-10-31T15:14:48;27.15;;;7.93;;
51298;SDS011;37382;45.192;9.790;2022-10-31T15:17:16;36.72;;;10.05;;
51298;SDS011;37382;45.192;9.790;2022-10-31T15:19:44;28.27;;;8.82;;
51298;SDS011;37382;45.192;9.790;2022-10-31T15:22:19;27.73;;;8.27;;
51298;SDS011;37382;45.192;9.790;2022-10-31T15:24:49;41.13;;;9.15;;
51298;SDS011;37382;45.192;9.790;2022-10-31T15:27:23;29.00;;;8.73;;
51298;SDS011;37382;45.192;9.790;2022-10-31T15:29:52;29.98;;;8.32;;
51298;SDS011;37382;45.192;9.790;2022-10-31T15:32:23;33.47;;;8.23;;
51298;SDS011;37382;45.192;9.790;2022-10-31T15:34:52;44.67;;;9.15;;
51298;SDS011;37382;45.192;9.790;2022-10-31T15:37:23;39.88;;;9.27;;
51298;SDS011;37382;45.192;9.790;2022-10-31T15:39:52;36.47;;;8.85;;
51298;SDS011;37382;45.192;9.790;2022-10-31T15:47:37;33.92;;;10.27;;
51298;SDS011;37382;45.192;9.790;2022-10-31T15:50:17;27.63;;;9.55;;
51298;SDS011;37382;45.192;9.790;2022-10-31T15:55:18;31.17;;;8.50;;
51298;SDS011;37382;45.192;9.790;2022-10-31T16:00:22;21.52;;;8.30;;
51298;SDS011;37382;45.192;9.790;2022-10-31T16:05:48;38.67;;;9.45;;
51298;SDS011;37382;45.192;9.790;2022-10-31T16:11:13;59.38;;;10.48;;
51298;SDS011;37382;45.192;9.790;2022-10-31T16:16:42;34.42;;;9.70;;
51298;SDS011;37382;45.192;9.790;2022-10-31T16:19:14;51.70;;;9.88;;
51298;SDS011;37382;45.192;9.790;2022-10-31T16:21:45;56.70;;;10.13;;
51298;SDS011;37382;45.192;9.790;2022-10-31T16:24:17;36.10;;;9.93;;
51298;SDS011;37382;45.192;9.790;2022-10-31T16:26:59;41.97;;;10.75;;
51298;SDS011;37382;45.192;9.790;2022-10-31T16:29:41;30.38;;;9.85;;
51298;SDS011;37382;45.192;9.790;2022-10-31T16:32:27;45.70;;;9.98;;
51298;SDS011;37382;45.192;9.790;2022-10-31T16:37:55;40.38;;;10.18;;
51298;SDS011;37382;45.192;9.790;2022-10-31T16:40:23;36.97;;;10.27;;
51298;SDS011;37382;45.192;9.790;2022-10-31T16:42:51;47.58;;;10.90;;
51298;SDS011;37382;45.192;9.790;2022-10-31T16:45:20;29.27;;;10.75;;
51298;SDS011;37382;45.192;9.790;2022-10-31T16:47:50;37.17;;;11.13;;
51298;SDS011;37382;45.192;9.790;2022-10-31T16:50:22;27.40;;;10.45;;
51298;SDS011;37382;45.192;9.790;2022-10-31T16:52:52;33.33;;;12.15;;
51298;SDS011;37382;45.192;9.790;2022-10-31T16:56:01;48.47;;;11.88;;
51298;SDS011;37382;45.192;9.790;2022-10-31T16:58:30;36.15;;;11.52;;
51298;SDS011;37382;45.192;9.790;2022-10-31T17:01:00;32.85;;;12.50;;
51298;SDS011;37382;45.192;9.790;2022-10-31T17:03:29;42.20;;;14.65;;
51298;SDS011;37382;45.192;9.790;2022-10-31T17:05:57;42.20;;;11.13;;
51298;SDS011;37382;45.192;9.790;2022-10-31T17:08:24;46.28;;;11.93;;
51298;SDS011;37382;45.192;9.790;2022-10-31T17:10:53;80.13;;;17.13;;
51298;SDS011;37382;45.192;9.790;2022-10-31T17:13:23;68.28;;;17.25;;
51298;SDS011;37382;45.192;9.790;2022-10-31T17:15:53;62.53;;;17.55;;
51298;SDS011;37382;45.192;9.790;2022-10-31T17:18:23;55.88;;;15.00;;
51298;SDS011;37382;45.192;9.790;2022-10-31T17:20:57;69.05;;;16.05;;
51298;SDS011;37382;45.192;9.790;2022-10-31T17:23:26;62.85;;;15.20;;
51298;SDS011;37382;45.192;9.790;2022-10-31T17:25:55;60.28;;;14.52;;
51298;SDS011;37382;45.192;9.790;2022-10-31T17:28:23;47.08;;;13.57;;
51298;SDS011;37382;45.192;9.790;2022-10-31T17:30:53;52.10;;;16.00;;
51298;SDS011;37382;45.192;9.790;2022-10-31T17:33:21;46.00;;;13.40;;
51298;SDS011;37382;45.192;9.790;2022-10-31T17:35:49;40.58;;;14.18;;
51298;SDS011;37382;45.192;9.790;2022-10-31T17:38:16;63.80;;;15.20;;
51298;SDS011;37382;45.192;9.790;2022-10-31T17:40:44;55.50;;;14.30;;
51298;SDS011;37382;45.192;9.790;2022-10-31T17:43:12;44.75;;;15.55;;
51298;SDS011;37382;45.192;9.790;2022-10-31T17:45:40;49.75;;;14.75;;
51298;SDS011;37382;45.192;9.790;2022-10-31T17:48:09;55.72;;;14.93;;
51298;SDS011;37382;45.192;9.790;2022-10-31T17:50:38;56.05;;;14.35;;
51298;SDS011;37382;45.192;9.790;2022-10-31T17:53:06;46.13;;;14.20;;
51298;SDS011;37382;45.192;9.790;2022-10-31T17:55:33;46.75;;;14.77;;
51298;SDS011;37382;45.192;9.790;2022-10-31T17:58:04;52.95;;;14.88;;
51298;SDS011;37382;45.192;9.790;2022-10-31T18:00:32;43.20;;;16.88;;
51298;SDS011;37382;45.192;9.790;2022-10-31T18:03:00;50.55;;;16.42;;
51298;SDS011;37382;45.192;9.790;2022-10-31T18:05:30;51.05;;;17.33;;
51298;SDS011;37382;45.192;9.790;2022-10-31T18:07:57;59.03;;;15.25;;
51298;SDS011;37382;45.192;9.790;2022-10-31T18:10:30;62.65;;;14.88;;
51298;SDS011;37382;45.192;9.790;2022-10-31T18:12:58;54.42;;;14.52;;
51298;SDS011;37382;45.192;9.790;2022-10-31T18:15:26;32.08;;;15.38;;
51298;SDS011;37382;45.192;9.790;2022-10-31T18:17:53;48.88;;;15.10;;
51298;SDS011;37382;45.192;9.790;2022-10-31T18:20:21;47.38;;;14.50;;
51298;SDS011;37382;45.192;9.790;2022-10-31T18:22:49;46.35;;;15.32;;
51298;SDS011;37382;45.192;9.790;2022-10-31T18:25:16;53.63;;;15.70;;
51298;SDS011;37382;45.192;9.790;2022-10-31T18:27:44;53.20;;;15.02;;
51298;SDS011;37382;45.192;9.790;2022-10-31T18:30:11;53.00;;;13.95;;
51298;SDS011;37382;45.192;9.790;2022-10-31T18:32:39;53.90;;;16.17;;
51298;SDS011;37382;45.192;9.790;2022-10-31T18:35:06;58.13;;;15.70;;
51298;SDS011;37382;45.192;9.790;2022-10-31T18:37:34;54.70;;;15.77;;
51298;SDS011;37382;45.192;9.790;2022-10-31T18:40:01;71.57;;;18.63;;
51298;SDS011;37382;45.192;9.790;2022-10-31T18:42:29;49.53;;;20.75;;
51298;SDS011;37382;45.192;9.790;2022-10-31T18:44:57;61.40;;;18.90;;
51298;SDS011;37382;45.192;9.790;2022-10-31T18:47:43;51.58;;;17.65;;
51298;SDS011;37382;45.192;9.790;2022-10-31T18:50:10;61.13;;;18.15;;
51298;SDS011;37382;45.192;9.790;2022-10-31T18:52:38;50.25;;;17.23;;
51298;SDS011;37382;45.192;9.790;2022-10-31T18:55:06;62.72;;;18.73;;
51298;SDS011;37382;45.192;9.790;2022-10-31T18:57:34;48.58;;;16.48;;
51298;SDS011;37382;45.192;9.790;2022-10-31T19:00:05;53.97;;;17.40;;
51298;SDS011;37382;45.192;9.790;2022-10-31T19:02:33;56.17;;;17.15;;
51298;SDS011;37382;45.192;9.790;2022-10-31T19:05:00;136.65;;;77.00;;
51298;SDS011;37382;45.192;9.790;2022-10-31T19:07:28;76.00;;;37.67;;
51298;SDS011;37382;45.192;9.790;2022-10-31T19:09:55;52.00;;;19.25;;
51298;SDS011;37382;45.192;9.790;2022-10-31T19:12:22;58.08;;;18.15;;
51298;SDS011;37382;45.192;9.790;2022-10-31T19:14:50;56.85;;;17.05;;
51298;SDS011;37382;45.192;9.790;2022-10-31T19:17:17;63.05;;;18.38;;
51298;SDS011;37382;45.192;9.790;2022-10-31T19:19:45;51.17;;;18.58;;
51298;SDS011;37382;45.192;9.790;2022-10-31T19:22:12;62.17;;;18.45;;
51298;SDS011;37382;45.192;9.790;2022-10-31T19:24:40;39.22;;;16.33;;
51298;SDS011;37382;45.192;9.790;2022-10-31T19:27:08;72.75;;;19.65;;
51298;SDS011;37382;45.192;9.790;2022-10-31T19:29:38;62.72;;;19.42;;
51298;SDS011;37382;45.192;9.790;2022-10-31T19:32:08;60.22;;;19.58;;
51298;SDS011;37382;45.192;9.790;2022-10-31T19:34:36;65.53;;;18.73;;
51298;SDS011;37382;45.192;9.790;2022-10-31T19:37:03;51.47;;;18.55;;
51298;SDS011;37382;45.192;9.790;2022-10-31T19:39:30;67.03;;;19.20;;
51298;SDS011;37382;45.192;9.790;2022-10-31T19:41:58;52.05;;;18.67;;
51298;SDS011;37382;45.192;9.790;2022-10-31T19:44:25;66.03;;;18.15;;
51298;SDS011;37382;45.192;9.790;2022-10-31T19:46:53;58.03;;;17.63;;
51298;SDS011;37382;45.192;9.790;2022-10-31T19:49:21;72.55;;;18.63;;
51298;SDS011;37382;45.192;9.790;2022-10-31T19:51:48;49.45;;;18.08;;
51298;SDS011;37382;45.192;9.790;2022-10-31T19:54:16;40.38;;;17.40;;
51298;SDS011;37382;45.192;9.790;2022-10-31T19:56:44;54.58;;;16.65;;
51298;SDS011;37382;45.192;9.790;2022-10-31T19:59:11;60.90;;;16.48;;
51298;SDS011;37382;45.192;9.790;2022-10-31T20:01:40;54.85;;;16.88;;
51298;SDS011;37382;45.192;9.790;2022-10-31T20:04:07;65.18;;;17.50;;
51298;SDS011;37382;45.192;9.790;2022-10-31T20:06:36;63.05;;;21.85;;
51298;SDS011;37382;45.192;9.790;2022-10-31T20:09:09;64.97;;;19.85;;
51298;SDS011;37382;45.192;9.790;2022-10-31T20:11:42;52.42;;;15.63;;
51298;SDS011;37382;45.192;9.790;2022-10-31T20:14:12;49.53;;;15.75;;
51298;SDS011;37382;45.192;9.790;2022-10-31T20:16:41;52.33;;;18.88;;
51298;SDS011;37382;45.192;9.790;2022-10-31T20:19:09;38.78;;;16.23;;
51298;SDS011;37382;45.192;9.790;2022-10-31T20:21:37;57.20;;;14.85;;
51298;SDS011;37382;45.192;9.790;2022-10-31T20:24:07;59.08;;;15.43;;
51298;SDS011;37382;45.192;9.790;2022-10-31T20:26:37;50.95;;;16.95;;
51298;SDS011;37382;45.192;9.790;2022-10-31T20:29:07;57.47;;;18.13;;
51298;SDS011;37382;45.192;9.790;2022-10-31T20:31:39;56.40;;;17.60;;
51298;SDS011;37382;45.192;9.790;2022-10-31T20:34:06;59.47;;;17.60;;
51298;SDS011;37382;45.192;9.790;2022-10-31T20:36:34;55.28;;;17.88;;
51298;SDS011;37382;45.192;9.790;2022-10-31T20:39:02;71.65;;;20.20;;
51298;SDS011;37382;45.192;9.790;2022-10-31T20:41:30;64.57;;;21.60;;
51298;SDS011;37382;45.192;9.790;2022-10-31T20:43:57;57.83;;;18.27;;
51298;SDS011;37382;45.192;9.790;2022-10-31T20:46:25;48.78;;;20.63;;
51298;SDS011;37382;45.192;9.790;2022-10-31T20:48:53;55.75;;;19.60;;
51298;SDS011;37382;45.192;9.790;2022-10-31T20:51:23;50.10;;;17.90;;
51298;SDS011;37382;45.192;9.790;2022-10-31T20:53:55;47.63;;;17.50;;
51298;SDS011;37382;45.192;9.790;2022-10-31T20:56:25;41.65;;;15.75;;
51298;SDS011;37382;45.192;9.790;2022-10-31T20:58:54;38.17;;;16.00;;
51298;SDS011;37382;45.192;9.790;2022-10-31T21:01:26;48.95;;;14.50;;
51298;SDS011;37382;45.192;9.790;2022-10-31T21:03:55;35.97;;;15.23;;
51298;SDS011;37382;45.192;9.790;2022-10-31T21:06:24;38.50;;;15.50;;
51298;SDS011;37382;45.192;9.790;2022-10-31T21:08:52;50.70;;;15.93;;
51298;SDS011;37382;45.192;9.790;2022-10-31T21:11:21;47.65;;;17.63;;
51298;SDS011;37382;45.192;9.790;2022-10-31T21:13:50;53.97;;;16.77;;
51298;SDS011;37382;45.192;9.790;2022-10-31T21:16:20;39.50;;;15.57;;
51298;SDS011;37382;45.192;9.790;2022-10-31T21:18:49;40.75;;;14.30;;
51298;SDS011;37382;45.192;9.790;2022-10-31T21:21:19;42.25;;;14.52;;
51298;SDS011;37382;45.192;9.790;2022-10-31T21:23:59;30.38;;;14.38;;
51298;SDS011;37382;45.192;9.790;2022-10-31T21:26:29;41.08;;;16.83;;
51298;SDS011;37382;45.192;9.790;2022-10-31T21:29:01;32.15;;;16.08;;
51298;SDS011;37382;45.192;9.790;2022-10-31T21:31:30;45.75;;;15.00;;
51298;SDS011;37382;45.192;9.790;2022-10-31T21:33:57;37.40;;;14.98;;
51298;SDS011;37382;45.192;9.790;2022-10-31T21:36:25;38.35;;;15.25;;
51298;SDS011;37382;45.192;9.790;2022-10-31T21:38:53;37.10;;;16.48;;
51298;SDS011;37382;45.192;9.790;2022-10-31T21:41:22;43.72;;;15.38;;
51298;SDS011;37382;45.192;9.790;2022-10-31T21:43:51;37.38;;;17.65;;
51298;SDS011;37382;45.192;9.790;2022-10-31T21:46:24;42.53;;;16.85;;
51298;SDS011;37382;45.192;9.790;2022-10-31T21:48:53;47.15;;;21.67;;
51298;SDS011;37382;45.192;9.790;2022-10-31T21:51:21;55.55;;;25.20;;
51298;SDS011;37382;45.192;9.790;2022-10-31T21:53:53;65.75;;;27.88;;
51298;SDS011;37382;45.192;9.790;2022-10-31T21:56:40;47.08;;;24.65;;
51298;SDS011;37382;45.192;9.790;2022-10-31T21:59:09;74.32;;;28.42;;
51298;SDS011;37382;45.192;9.790;2022-10-31T22:01:37;83.38;;;35.80;;
51298;SDS011;37382;45.192;9.790;2022-10-31T22:04:05;80.25;;;31.65;;
51298;SDS011;37382;45.192;9.790;2022-10-31T22:06:33;70.05;;;30.95;;
51298;SDS011;37382;45.192;9.790;2022-10-31T22:09:02;72.32;;;27.55;;
51298;SDS011;37382;45.192;9.790;2022-10-31T22:11:31;64.63;;;28.02;;
51298;SDS011;37382;45.192;9.790;2022-10-31T22:14:00;44.83;;;22.63;;
51298;SDS011;37382;45.192;9.790;2022-10-31T22:16:28;39.83;;;18.95;;
51298;SDS011;37382;45.192;9.790;2022-10-31T22:18:57;36.85;;;17.77;;
51298;SDS011;37382;45.192;9.790;2022-10-31T22:21:27;33.47;;;15.70;;
51298;SDS011;37382;45.192;9.790;2022-10-31T22:23:55;37.35;;;16.27;;
51298;SDS011;37382;45.192;9.790;2022-10-31T22:26:31;41.45;;;15.90;;
51298;SDS011;37382;45.192;9.790;2022-10-31T22:29:00;44.22;;;15.55;;
51298;SDS011;37382;45.192;9.790;2022-10-31T22:31:30;40.28;;;15.73;;
51298;SDS011;37382;45.192;9.790;2022-10-31T22:33:59;39.22;;;14.73;;
51298;SDS011;37382;45.192;9.790;2022-10-31T22:36:28;42.42;;;15.63;;
51298;SDS011;37382;45.192;9.790;2022-10-31T22:38:58;31.30;;;14.73;;
